Time;durP1;ratioP1;P1;durP2;ratioP2;P2;SDS_P1;SDS_P2;PMS_P1;PMS_P2;Temp;Humidity;BMP_temperature;BMP_pressure;BME280_temperature;BME280_humidity;BME280_pressure;Samples;Min_cycle;Max_cycle;Signal;HPM_P1;HPM_P2
2023/07/30 00:02:21;;;;;;;14.05;3.60;;;;;;;-147.95;100.00;58458.38;4946831;28;20406;-73
2023/07/30 00:05:07;;;;;;;7.90;3.72;;;;;;;-147.95;100.00;58458.38;4943417;28;20043;-74
2023/07/30 00:07:54;;;;;;;13.45;3.08;;;;;;;-147.95;100.00;58458.38;4915227;29;20571;-72
2023/07/30 00:10:40;;;;;;;12.52;3.33;;;;;;;-147.95;100.00;58458.38;4946031;29;20043;-73
2023/07/30 00:13:26;;;;;;;8.50;2.95;;;;;;;-147.95;100.00;58458.38;4930759;28;20031;-72
2023/07/30 00:16:11;;;;;;;12.27;2.83;;;;;;;-147.95;100.00;58458.38;4931859;29;20050;-72
2023/07/30 00:18:57;;;;;;;10.75;3.25;;;;;;;-147.95;100.00;58458.38;4917996;29;20271;-72
2023/07/30 00:21:46;;;;;;;10.50;3.05;;;;;;;-147.95;100.00;58458.38;4944507;28;20122;-73
2023/07/30 00:24:32;;;;;;;14.20;3.20;;;;;;;-147.95;100.00;58458.38;4932210;28;20123;-73
2023/07/30 00:27:17;;;;;;;11.02;3.13;;;;;;;-147.95;100.00;58458.38;4942384;28;20051;-72
2023/07/30 00:30:04;;;;;;;10.23;3.13;;;;;;;-147.95;100.00;58458.38;4944480;28;20568;-72
2023/07/30 00:32:50;;;;;;;9.50;3.13;;;;;;;-147.95;100.00;58458.38;4931551;29;20049;-72
2023/07/30 00:35:35;;;;;;;12.43;3.00;;;;;;;-147.95;100.00;58458.38;4917814;29;20207;-73
2023/07/30 00:38:21;;;;;;;14.10;3.33;;;;;;;-147.95;100.00;58458.38;4943120;29;20059;-72
2023/07/30 00:41:07;;;;;;;13.60;3.47;;;;;;;-147.95;100.00;58458.38;4944531;28;20548;-72
2023/07/30 00:43:53;;;;;;;9.50;3.13;;;;;;;-147.95;100.00;58458.38;4943953;28;20043;-72
2023/07/30 00:46:38;;;;;;;7.70;3.30;;;;;;;-147.95;100.00;58458.38;4930248;29;20460;-72
2023/07/30 00:49:26;;;;;;;15.15;3.80;;;;;;;-147.95;100.00;58458.38;4945213;28;20056;-72
2023/07/30 00:52:12;;;;;;;12.38;3.20;;;;;;;-147.95;100.00;58458.38;4942960;28;20074;-73
2023/07/30 00:55:00;;;;;;;9.48;3.10;;;;;;;-147.95;100.00;58458.38;4931657;29;20189;-72
2023/07/30 00:57:46;;;;;;;14.43;3.30;;;;;;;-147.95;100.00;58458.38;4944131;29;20050;-73
2023/07/30 01:00:32;;;;;;;9.85;3.33;;;;;;;-147.95;100.00;58458.38;4944243;28;20094;-73
2023/07/30 01:03:18;;;;;;;14.07;3.50;;;;;;;-147.95;100.00;58458.38;4945216;28;20053;-73
2023/07/30 01:06:04;;;;;;;8.18;3.00;;;;;;;-147.95;100.00;58458.38;4943261;28;20460;-73
2023/07/30 01:08:50;;;;;;;12.80;3.50;;;;;;;-147.95;100.00;58458.38;4931606;29;20658;-73
2023/07/30 01:11:38;;;;;;;12.13;3.22;;;;;;;-147.95;100.00;58458.38;4944131;28;20456;-72
2023/07/30 01:14:26;;;;;;;15.57;4.38;;;;;;;-147.95;100.00;58458.38;4947062;28;20651;-72
2023/07/30 01:17:12;;;;;;;11.65;3.42;;;;;;;-147.95;100.00;58458.38;4945676;29;20075;-73
2023/07/30 01:19:58;;;;;;;12.52;3.80;;;;;;;-147.95;100.00;58458.38;4945625;29;20051;-72
2023/07/30 01:22:43;;;;;;;17.20;3.58;;;;;;;-147.95;100.00;58458.38;4944578;28;20055;-72
2023/07/30 01:25:33;;;;;;;9.02;3.50;;;;;;;-147.95;100.00;58458.38;4944694;28;20106;-72
2023/07/30 01:28:20;;;;;;;14.13;3.63;;;;;;;-147.95;100.00;58458.38;4930556;29;20047;-73
2023/07/30 01:31:07;;;;;;;9.73;3.45;;;;;;;-147.95;100.00;58458.38;4945504;28;20480;-73
2023/07/30 01:33:56;;;;;;;13.40;3.45;;;;;;;-147.95;100.00;58458.38;4945565;28;20497;-73
2023/07/30 01:36:43;;;;;;;11.27;3.15;;;;;;;-147.95;100.00;58458.38;4942629;29;20047;-73
2023/07/30 01:39:30;;;;;;;20.17;4.40;;;;;;;-147.95;100.00;58458.38;4943841;29;20047;-73
2023/07/30 01:42:16;;;;;;;10.05;3.08;;;;;;;-147.95;100.00;58458.38;4931621;29;20055;-72
2023/07/30 01:45:03;;;;;;;14.38;3.65;;;;;;;-147.95;100.00;58458.38;4930318;29;20043;-73
2023/07/30 01:47:48;;;;;;;10.40;3.72;;;;;;;-147.95;100.00;58458.38;4942993;28;20058;-73
2023/07/30 01:50:37;;;;;;;12.55;3.55;;;;;;;-147.95;100.00;58458.38;4946114;28;20054;-72
2023/07/30 01:53:22;;;;;;;17.23;3.92;;;;;;;-147.95;100.00;58458.38;4928649;29;20071;-73
2023/07/30 01:56:08;;;;;;;8.13;3.28;;;;;;;-147.95;100.00;58458.38;4929601;29;20053;-72
2023/07/30 01:58:54;;;;;;;15.65;3.53;;;;;;;-147.95;100.00;58458.38;4945726;29;20505;-73
2023/07/30 02:01:41;;;;;;;14.77;3.53;;;;;;;-147.95;100.00;58458.38;4931187;29;20353;-72
2023/07/30 02:04:26;;;;;;;15.18;3.63;;;;;;;-147.95;100.00;58458.38;4929493;28;20051;-73
2023/07/30 02:07:12;;;;;;;13.27;3.72;;;;;;;-147.95;100.00;58458.38;4929560;29;20039;-72
2023/07/30 02:09:58;;;;;;;17.08;4.03;;;;;;;-147.95;100.00;58458.38;4944860;28;20054;-72
2023/07/30 02:12:44;;;;;;;11.75;2.75;;;;;;;-147.95;100.00;58458.38;4921201;28;20204;-73
2023/07/30 02:15:30;;;;;;;12.05;3.65;;;;;;;-147.95;100.00;58458.38;4932177;29;20035;-73
2023/07/30 02:18:15;;;;;;;20.85;3.83;;;;;;;-147.95;100.00;58458.38;4948305;28;20177;-73
2023/07/30 02:21:01;;;;;;;18.10;3.40;;;;;;;-147.95;100.00;58458.38;4921353;28;20043;-72
2023/07/30 02:23:47;;;;;;;13.93;3.20;;;;;;;-147.95;100.00;58458.38;4933308;29;20497;-73
2023/07/30 02:26:33;;;;;;;13.18;3.63;;;;;;;-147.95;100.00;58458.38;4935769;29;20039;-73
2023/07/30 02:29:18;;;;;;;16.15;3.50;;;;;;;-147.95;100.00;58458.38;4933288;28;20043;-72
2023/07/30 02:32:04;;;;;;;19.33;3.25;;;;;;;-147.95;100.00;58458.38;4947073;28;20039;-72
2023/07/30 02:34:50;;;;;;;14.82;3.38;;;;;;;-147.95;100.00;58458.38;4947585;28;20071;-74
2023/07/30 02:37:36;;;;;;;19.17;5.22;;;;;;;-147.95;100.00;58458.38;4946837;28;20118;-73
2023/07/30 02:40:22;;;;;;;13.65;3.25;;;;;;;-147.95;100.00;58458.38;4932594;29;20079;-73
2023/07/30 02:43:07;;;;;;;12.10;3.15;;;;;;;-147.95;100.00;58458.38;4931273;29;20489;-73
2023/07/30 02:45:53;;;;;;;13.32;3.40;;;;;;;-147.95;100.00;58458.38;4932891;29;20412;-71
2023/07/30 02:48:39;;;;;;;15.23;3.50;;;;;;;-147.95;100.00;58458.38;4921364;29;20043;-72
2023/07/30 02:51:25;;;;;;;20.25;3.20;;;;;;;-147.95;100.00;58458.38;4946436;28;20512;-73
2023/07/30 02:54:10;;;;;;;17.02;3.17;;;;;;;-147.95;100.00;58458.38;4949481;28;20035;-73
2023/07/30 02:56:56;;;;;;;18.73;3.25;;;;;;;-147.95;100.00;58458.38;4946062;28;20051;-74
2023/07/30 02:59:42;;;;;;;13.52;3.03;;;;;;;-147.95;100.00;58458.38;4945291;28;20043;-73
2023/07/30 03:02:31;;;;;;;18.98;3.28;;;;;;;-147.95;100.00;58458.38;4932619;28;20137;-72
2023/07/30 03:05:18;;;;;;;14.73;3.35;;;;;;;-147.95;100.00;58458.38;4934153;29;20054;-73
2023/07/30 03:08:03;;;;;;;18.48;3.35;;;;;;;-147.95;100.00;58458.38;4946372;29;20238;-73
2023/07/30 03:10:49;;;;;;;14.27;2.95;;;;;;;-147.95;100.00;58458.38;4934248;29;20047;-74
2023/07/30 03:13:36;;;;;;;15.05;3.08;;;;;;;-147.95;100.00;58458.38;4932518;29;20046;-78
2023/07/30 03:16:22;;;;;;;18.92;4.03;;;;;;;-147.95;100.00;58458.38;4932973;29;20126;-78
2023/07/30 03:19:07;;;;;;;18.15;3.58;;;;;;;-147.95;100.00;58458.38;4948638;28;20474;-78
2023/07/30 03:21:53;;;;;;;12.70;3.55;;;;;;;-147.95;100.00;58458.38;4943115;28;20044;-79
2023/07/30 03:24:39;;;;;;;17.58;4.47;;;;;;;-147.95;100.00;58458.38;4944866;28;20049;-78
2023/07/30 03:27:24;;;;;;;19.63;4.03;;;;;;;-147.95;100.00;58458.38;4945529;28;20531;-78
2023/07/30 03:30:11;;;;;;;13.15;3.90;;;;;;;-147.95;100.00;58458.38;4932590;28;20043;-79
2023/07/30 03:32:57;;;;;;;19.27;3.65;;;;;;;-147.95;100.00;58458.38;4945248;29;20167;-78
2023/07/30 03:35:42;;;;;;;23.48;3.40;;;;;;;-147.95;100.00;58458.38;4945552;28;20039;-78
2023/07/30 03:38:31;;;;;;;14.18;3.58;;;;;;;-147.95;100.00;58458.38;4948353;28;20097;-78
2023/07/30 03:41:18;;;;;;;17.08;3.67;;;;;;;-147.95;100.00;58458.38;4944238;28;20050;-78
2023/07/30 03:44:04;;;;;;;25.17;4.60;;;;;;;-147.95;100.00;58458.38;4945843;29;20054;-78
2023/07/30 03:46:50;;;;;;;14.00;3.33;;;;;;;-147.95;100.00;58458.38;4944773;28;20050;-78
2023/07/30 03:49:35;;;;;;;16.73;3.58;;;;;;;-147.95;100.00;58458.38;4933962;29;20476;-78
2023/07/30 03:52:21;;;;;;;16.65;3.25;;;;;;;-147.95;100.00;58458.38;4932214;29;20103;-78
2023/07/30 03:55:07;;;;;;;12.52;2.92;;;;;;;-147.95;100.00;58458.38;4947768;28;20047;-78
2023/07/30 03:57:53;;;;;;;31.40;3.58;;;;;;;-147.95;100.00;58458.38;4945680;28;20371;-78
2023/07/30 04:00:39;;;;;;;17.63;3.83;;;;;;;-147.95;100.00;58458.38;4947563;28;20047;-78
2023/07/30 04:03:25;;;;;;;15.10;3.20;;;;;;;-147.95;100.00;58458.38;4930245;28;20090;-78
2023/07/30 04:06:11;;;;;;;17.15;3.97;;;;;;;-147.95;100.00;58458.38;4930087;29;20051;-78
2023/07/30 04:08:56;;;;;;;17.88;3.80;;;;;;;-147.95;100.00;58458.38;4930863;29;20050;-78
2023/07/30 04:11:42;;;;;;;11.68;3.03;;;;;;;-147.95;100.00;58458.38;4930696;29;20139;-78
2023/07/30 04:14:30;;;;;;;20.80;4.15;;;;;;;-147.95;100.00;58458.38;4945376;28;20047;-78
2023/07/30 04:17:16;;;;;;;22.60;3.88;;;;;;;-147.95;100.00;58458.38;4945214;29;20047;-78
2023/07/30 04:20:02;;;;;;;17.98;4.35;;;;;;;-147.95;100.00;58458.38;4930785;29;20453;-78
2023/07/30 04:22:48;;;;;;;27.20;3.85;;;;;;;-147.95;100.00;58458.38;4932315;29;20246;-78
2023/07/30 04:25:37;;;;;;;19.42;4.15;;;;;;;-147.95;100.00;58458.38;4945532;28;20051;-78
2023/07/30 04:28:23;;;;;;;18.02;4.03;;;;;;;-147.95;100.00;58458.38;4932203;29;20036;-78
2023/07/30 04:31:08;;;;;;;18.67;5.22;;;;;;;-147.95;100.00;58458.38;4942685;28;20043;-78
2023/07/30 04:33:54;;;;;;;25.08;4.93;;;;;;;-147.95;100.00;58458.38;4932568;28;20035;-77
2023/07/30 04:36:40;;;;;;;26.05;5.70;;;;;;;-147.95;100.00;58458.38;4941653;28;20690;-77
2023/07/30 04:39:26;;;;;;;28.75;6.15;;;;;;;-147.95;100.00;58458.38;4932494;28;20138;-77
2023/07/30 04:42:13;;;;;;;21.10;6.45;;;;;;;-147.95;100.00;58458.38;4930054;29;20205;-76
2023/07/30 04:44:58;;;;;;;28.23;6.65;;;;;;;-147.95;100.00;58458.38;4944311;29;20043;-77
2023/07/30 04:47:44;;;;;;;34.45;6.88;;;;;;;-147.95;100.00;58458.38;4943436;28;20122;-77
2023/07/30 04:50:30;;;;;;;27.17;6.57;;;;;;;-147.95;100.00;58458.38;4943525;28;20062;-77
2023/07/30 04:53:16;;;;;;;24.17;5.97;;;;;;;-147.95;100.00;58458.38;4929971;29;20035;-78
2023/07/30 04:56:02;;;;;;;23.95;6.55;;;;;;;-147.95;100.00;58458.38;4943238;28;20053;-78
2023/07/30 04:58:48;;;;;;;35.47;7.30;;;;;;;-147.95;100.00;58458.38;4929063;29;20762;-79
2023/07/30 05:01:37;;;;;;;32.05;6.60;;;;;;;-147.95;100.00;58458.38;4928731;28;20055;-78
2023/07/30 05:04:23;;;;;;;27.67;6.82;;;;;;;-147.95;100.00;58458.38;4947951;28;20091;-77
2023/07/30 05:07:09;;;;;;;19.95;6.53;;;;;;;-147.95;100.00;58458.38;4937747;28;20122;-78
2023/07/30 05:09:54;;;;;;;23.38;7.30;;;;;;;-147.95;100.00;58458.38;4943392;28;20064;-80
2023/07/30 05:12:40;;;;;;;30.90;6.35;;;;;;;-147.95;100.00;58458.38;4934308;29;20039;-80
2023/07/30 05:15:26;;;;;;;18.60;5.57;;;;;;;-147.95;100.00;58458.38;4933587;28;20070;-80
2023/07/30 05:18:13;;;;;;;37.15;6.57;;;;;;;-147.95;100.00;58458.38;4947771;28;20047;-80
2023/07/30 05:20:59;;;;;;;24.67;5.88;;;;;;;-147.95;100.00;58458.38;4947680;28;20058;-81
2023/07/30 05:23:45;;;;;;;25.08;4.88;;;;;;;-147.95;100.00;58458.38;4948988;28;20552;-81
2023/07/30 05:26:30;;;;;;;21.05;5.38;;;;;;;-147.95;100.00;58458.38;4935865;28;20489;-81
2023/07/30 05:29:16;;;;;;;21.55;4.80;;;;;;;-147.95;100.00;58458.38;4946303;28;20412;-81
2023/07/30 05:32:02;;;;;;;24.90;4.88;;;;;;;-147.95;100.00;58458.38;4931577;29;20122;-78
2023/07/30 05:34:48;;;;;;;20.40;5.30;;;;;;;-147.95;100.00;58458.38;4933175;29;20047;-79
2023/07/30 05:37:33;;;;;;;21.10;4.70;;;;;;;-147.95;100.00;58458.38;4934213;29;20039;-78
2023/07/30 05:40:21;;;;;;;21.23;4.88;;;;;;;-147.95;100.00;58458.38;4934453;28;20086;-80
2023/07/30 05:43:06;;;;;;;26.13;6.22;;;;;;;-147.95;100.00;58458.38;4921172;29;20122;-79
2023/07/30 05:45:53;;;;;;;18.83;3.95;;;;;;;-147.95;100.00;58458.38;4949947;28;20043;-79
2023/07/30 05:48:39;;;;;;;21.55;4.15;;;;;;;-147.95;100.00;58458.38;4953089;29;20066;-73
2023/07/30 05:51:25;;;;;;;25.30;4.75;;;;;;;-147.95;100.00;58458.38;4937831;29;20047;-73
2023/07/30 05:54:12;;;;;;;22.88;3.83;;;;;;;-147.95;100.00;58458.38;4950767;28;20319;-72
2023/07/30 05:56:58;;;;;;;31.95;5.55;;;;;;;-147.95;100.00;58458.38;4947601;28;20047;-73
2023/07/30 05:59:43;;;;;;;27.13;5.05;;;;;;;-147.95;100.00;58458.38;4938458;29;20381;-73
2023/07/30 06:02:29;;;;;;;30.55;4.68;;;;;;;-147.95;100.00;58458.38;4935073;29;20129;-73
2023/07/30 06:05:18;;;;;;;36.67;4.82;;;;;;;-147.95;100.00;58458.38;4949856;28;20474;-74
2023/07/30 06:08:05;;;;;;;26.70;4.25;;;;;;;-147.95;100.00;58458.38;4949603;29;20035;-72
2023/07/30 06:10:51;;;;;;;20.35;3.97;;;;;;;-147.95;100.00;58458.38;4949903;28;20086;-73
2023/07/30 06:13:37;;;;;;;35.90;4.90;;;;;;;-147.95;100.00;58458.38;4948079;29;20130;-73
2023/07/30 06:16:23;;;;;;;36.05;4.85;;;;;;;-147.95;100.00;58458.38;4947223;28;20048;-73
2023/07/30 06:19:09;;;;;;;25.88;5.53;;;;;;;-147.95;100.00;58458.38;4953592;28;20047;-73
2023/07/30 06:21:55;;;;;;;28.75;4.55;;;;;;;-147.95;100.00;58458.38;4887645;23;20526;-79
2023/07/30 06:24:43;;;;;;;28.95;4.60;;;;;;;-147.95;100.00;58458.38;4963565;28;20054;-79
2023/07/30 06:27:12;;;;;;;32.00;5.30;;;;;;;-147.95;100.00;58458.38;4991425;23;20054;-79
2023/07/30 06:29:58;;;;;;;19.45;4.65;;;;;;;-147.95;100.00;58458.38;4989998;28;20139;-79
2023/07/30 06:32:44;;;;;;;30.10;4.75;;;;;;;-147.95;100.00;58458.38;4992094;28;20030;-79
2023/07/30 06:35:29;;;;;;;26.70;4.07;;;;;;;-147.95;100.00;58458.38;4980417;28;20467;-79
2023/07/30 06:38:15;;;;;;;28.23;4.53;;;;;;;-147.95;100.00;58458.38;4989496;28;20050;-79
2023/07/30 06:41:01;;;;;;;20.55;4.32;;;;;;;-147.95;100.00;58458.38;4960792;28;20052;-79
2023/07/30 06:43:47;;;;;;;18.33;3.90;;;;;;;-147.95;100.00;58458.38;4990164;28;20089;-80
2023/07/30 06:46:33;;;;;;;23.17;4.18;;;;;;;-147.95;100.00;58458.38;4988377;28;20037;-80
2023/07/30 06:49:26;;;;;;;21.42;5.13;;;;;;;-147.95;100.00;58458.38;4974610;28;20049;-79
2023/07/30 06:52:12;;;;;;;21.80;3.75;;;;;;;-147.95;100.00;58458.38;4979965;28;20066;-79
2023/07/30 06:54:58;;;;;;;19.85;4.10;;;;;;;-147.95;100.00;58458.38;4966453;28;20042;-79
2023/07/30 06:57:44;;;;;;;21.85;4.10;;;;;;;-147.95;100.00;58458.38;4968021;28;20034;-80
2023/07/30 07:00:29;;;;;;;24.80;4.63;;;;;;;-147.95;100.00;58458.38;4974247;28;20526;-79
2023/07/30 07:03:15;;;;;;;26.05;3.95;;;;;;;-147.95;100.00;58458.38;4956368;28;20046;-79
2023/07/30 07:06:01;;;;;;;22.73;4.20;;;;;;;-147.95;100.00;58458.38;4950287;28;20661;-79
2023/07/30 07:08:47;;;;;;;17.35;3.40;;;;;;;-147.95;100.00;58458.38;4962501;28;21662;-79
2023/07/30 07:11:32;;;;;;;24.85;3.80;;;;;;;-147.95;100.00;58458.38;4977637;28;20044;-79
2023/07/30 07:14:18;;;;;;;16.83;3.75;;;;;;;-147.95;100.00;58458.38;4965099;28;20571;-79
2023/07/30 07:17:04;;;;;;;19.20;3.25;;;;;;;-147.95;100.00;58458.38;4967701;28;20038;-79
2023/07/30 07:19:50;;;;;;;20.30;3.70;;;;;;;-147.95;100.00;58458.38;4974566;28;20035;-80
2023/07/30 07:22:37;;;;;;;24.33;4.50;;;;;;;-147.95;100.00;58458.38;4980089;28;20443;-81
2023/07/30 07:25:23;;;;;;;27.23;4.03;;;;;;;-147.95;100.00;58458.38;4963654;28;20515;-80
2023/07/30 07:28:09;;;;;;;18.85;3.17;;;;;;;-147.95;100.00;58458.38;4967445;28;20035;-80
2023/07/30 07:30:55;;;;;;;20.60;3.20;;;;;;;-147.95;100.00;58458.38;4966156;28;20496;-75
2023/07/30 07:33:43;;;;;;;21.73;4.18;;;;;;;-147.95;100.00;58458.38;4980049;28;20035;-74
2023/07/30 07:36:29;;;;;;;15.32;3.40;;;;;;;-147.95;100.00;58458.38;4964998;28;20526;-75
2023/07/30 07:39:15;;;;;;;14.90;3.33;;;;;;;-147.95;100.00;58458.38;4970214;28;20038;-75
2023/07/30 07:42:00;;;;;;;27.55;3.35;;;;;;;-147.95;100.00;58458.38;4944303;28;20034;-75
2023/07/30 07:44:46;;;;;;;32.65;3.90;;;;;;;-147.95;100.00;58458.38;4981316;28;20050;-75
2023/07/30 07:47:32;;;;;;;31.17;3.95;;;;;;;-147.95;100.00;58458.38;4951076;28;20038;-77
2023/07/30 07:50:17;;;;;;;22.80;3.33;;;;;;;-147.95;100.00;58458.38;4972390;28;20070;-75
2023/07/30 07:53:03;;;;;;;25.40;4.18;;;;;;;-147.95;100.00;58458.38;4948826;28;20046;-75
2023/07/30 07:55:49;;;;;;;16.83;4.05;;;;;;;-147.95;100.00;58458.38;4946869;28;20519;-76
2023/07/30 07:58:35;;;;;;;19.05;3.65;;;;;;;-147.95;100.00;58458.38;4968632;28;20049;-75
2023/07/30 08:01:21;;;;;;;21.38;2.95;;;;;;;-147.95;100.00;58458.38;4978647;28;20038;-75
2023/07/30 08:04:07;;;;;;;22.52;4.13;;;;;;;-147.95;100.00;58458.38;4953138;28;20104;-76
2023/07/30 08:06:53;;;;;;;20.27;4.00;;;;;;;-147.95;100.00;58458.38;4967166;28;20129;-75
2023/07/30 08:09:38;;;;;;;24.20;3.00;;;;;;;-147.95;100.00;58458.38;4956019;28;20050;-76
2023/07/30 08:12:25;;;;;;;16.60;2.50;;;;;;;-147.95;100.00;58458.38;4978249;28;20045;-76
2023/07/30 08:15:11;;;;;;;24.45;3.53;;;;;;;-147.95;100.00;58458.38;4970270;28;20042;-75
2023/07/30 08:17:57;;;;;;;23.70;3.53;;;;;;;-147.95;100.00;58458.38;4977745;28;20038;-75
2023/07/30 08:20:44;;;;;;;22.13;3.72;;;;;;;-147.95;100.00;58458.38;4976945;28;20702;-76
2023/07/30 08:23:29;;;;;;;25.83;3.55;;;;;;;-147.95;100.00;58458.38;4948917;28;20049;-75
2023/07/30 08:26:15;;;;;;;20.45;2.63;;;;;;;-147.95;100.00;58458.38;4979355;28;20057;-75
2023/07/30 08:29:01;;;;;;;25.20;2.38;;;;;;;-147.95;100.00;58458.38;4965382;28;20886;-76
2023/07/30 08:31:47;;;;;;;18.42;2.65;;;;;;;-147.95;100.00;58458.38;4954748;28;20574;-75
